This is the latest recevied weather packets stored in our database for station/object OE3CJB-13. If no packets are shown the sender has not sent any weather packets the latest 10 day(s).
| Time | Temp. | Humidity | Pressure | Rain* | Wind** | Luminosity | Snow |
|---|---|---|---|---|---|---|---|
| 1787649364 | 22.78° C | 37% | 1139.1 hPa | 0 mm | - | - | - |
| 1787648442 | 22.22° C | 40% | 1136.3 hPa | 0 mm | - | - | - |
| 1787647528 | 21.67° C | 41% | 1132.6 hPa | 0 mm | - | - | - |
| 1787646617 | 21.11° C | 42% | 1131.1 hPa | 0 mm | - | - | - |
| 1787645752 | 20.56° C | 43% | 1129.7 hPa | 0 mm | - | - | - |
| 1787644867 | 20.56° C | 44% | 1129 hPa | 0 mm | - | - | - |
| 1787643929 | 20° C | 46% | 1126.7 hPa | 0 mm | - | - | - |
| 1787643017 | 19.44° C | 47% | 1124.3 hPa | 0 mm | - | - | - |
| 1787642152 | 18.89° C | 47% | 1123.6 hPa | 0 mm | - | - | - |
| 1787641242 | 18.33° C | 49% | 1121.4 hPa | 0 mm | - | - | - |
| 1787640328 | 17.78° C | 50% | 1119.1 hPa | 0 mm | - | - | - |
| 1787639417 | 17.22° C | 51% | 1117 hPa | 0 mm | - | - | - |
| 1787638552 | 16.67° C | 51% | 1114.7 hPa | 0 mm | - | - | - |
| 1787637642 | 16.11° C | 51% | 1114.9 hPa | 0 mm | - | - | - |
| 1787636765 | 16.11° C | 51% | 1114.3 hPa | 0 mm | - | - | - |
| 1787635817 | 15.56° C | 52% | 1116.7 hPa | 0 mm | - | - | - |
| 1787634952 | 15.56° C | 54% | 1116.7 hPa | 0 mm | - | - | - |
| 1787634042 | 15° C | 54% | 1116 hPa | 0 mm | - | - | - |
| 1787633128 | 15° C | 55% | 1117.5 hPa | 0 mm | - | - | - |
| 1787632217 | 14.44° C | 55% | 1118.4 hPa | 0 mm | - | - | - |
| 1787631353 | 15° C | 54% | 1120.5 hPa | 0 mm | - | - | - |
| 1787630467 | 15° C | 54% | 1120.5 hPa | 0 mm | - | - | - |
| 1787629528 | 15° C | 54% | 1122.8 hPa | 0 mm | - | - | - |
| 1787628617 | 15° C | 53% | 1124.5 hPa | 0 mm | - | - | - |
| 1787627766 | 15° C | 53% | 1126 hPa | 0 mm | - | - | - |
* Rain latest hour (hover to see other rain measurements)
** Current wind speed in m/s (hover to see current wind gust speed)